Detall de PIREP

Printer-friendly versionPDF version

[2014/10/01 16:47:00]
Flight IATA:CT1028
Pilot Number:012
Company ICAO:CAT
Aircraft Type:B763/F
PAX:0
Departing Airport: KORD
Destination Airport: CYUL
Alternate Airport:CYQB
Online: VATSIM
Route:GIJ J146 GERBS YYZ Q951 SANIN MIGLO REEDO IGVUD KAVSU ARVIE HABBS FULFO
Flight Level:F370
No Slew and time accel
No pause
Crash detect
Detect pilot in Cockpit between each 30 and 45 minutes
16:47 Zero fuel Weight: 268545 Lbs, Fuel Weight: 34667 Lbs
16:47 VATSIM:KORD 011551Z 13009KT 10SM FEW026 16/08 A3001 RMK AO2 SLP162 T01610083 $
16:47 VATSIM:CYUL 011600Z 02008KT 15SM BKN017 OVC050 14/10 A3017 RMK SC7SC1 SLP218
16:47 BOEING TRANSPORT
16:48 Parking Brakes off
16:55 Take-off
16:55 Take off Weight: 301465 Lbs
16:55 Wind: 133º @ 008 Knots Heading: 139º
16:55 POS N41º 59´ 13´´ W087º 53´ 53´´
16:55 Flaps:2 at 170 Knots
16:55 Gear Up: 173 Knots
16:55 Flaps:1 at 185 Knots
16:56 Flaps:0 at 240 Knots
17:09 TOC
17:09 Fuel Weight: 26771 Lb
17:10 Wind:270º@024 Knots Heading: 089º Ground Speed: 491 Knots Altitude 37122 ft
17:25 Wind:314º@016 Knots Heading: 059º Ground Speed: 469 Knots Altitude 37148 ft
17:40 Wind:327º@020 Knots Heading: 060º Ground Speed: 467 Knots Altitude 37155 ft
17:55 Wind:015º@024 Knots Heading: 073º Ground Speed: 453 Knots Altitude 37178 ft
18:09 TOD
18:09 Fuel Weight: 17548 Lb
18:10 Wind:043º@026 Knots Heading: 068º Ground Speed: 455 Knots Altitude 35515 ft
18:21 Flaps:1 at 241 Knots
18:25 Wind:076º@008 Knots Heading: 073º Ground Speed: 252 Knots Altitude 5449 ft
18:27 Flaps:2 at 224 Knots
18:27 Gear Down: 207 Knots
18:27 Flaps:3 at 175 Knots
18:28 Flaps:4 at 152 Knots
18:28 Flaps:5 at 140 Knots
18:28 Flaps:6 at 133 Knots
18:32 TouchDown:Rate -344 ft/min Speed: 125 Knots
18:32 Flaps:3 at 70 Knots
18:32 VATSIM:CYUL 011800Z 05007KT 15SM BKN021 OVC050 15/10 A3014 RMK SC6SC2 SLP206
18:32 Land
18:32 Wind:068º@007 Knots
18:32 Heading: 044º
18:32 Flight Duration: 01:37
18:32 Landing Weight: 283736 Lbs
18:32 POS N45º 28´ 05´´ W073º 45´ 20´´
18:35 Parking brakes on
18:35 Block to Block Duration: 01:47
18:35 Final Fuel: 14686 Lbls
18:35 Spent Fuel: 19980 Lbls
18:35 Flight Length: 672 NM
18:35 TOD Land Length: 114 NM

Exportar CSV

Powered by Drupal - Modified by Danger4k